Terminal Aerodrome Forecast
Issued by NWS

Home | Current Version | Previous Version | Text Only | Print | Product List | Glossary On
Versions: 1 2 3 4 5 6 7 8 9 10 11 12 13 14 15 16 17
000
FTUS43 KILX 021100
TAFDEC
TAF
KDEC 021133Z 0212/0312 VRB04KT 5SM BR BKN200
     FM021400 VRB04KT P6SM SCT100 BKN200
     FM030500 14010KT P6SM OVC090
     FM030900 15013KT 6SM -FZRAPL BR SCT012 OVC025=

USA.gov is the U.S. government's official web portal to all federal, state and local government web resources and services.